sensor_id;sensor_type;location;lat;lon;timestamp;temperature;humidity
1988;DHT22;12775;46.994;15.498;2023-05-07T00:01:36;17.70;99.90
1988;DHT22;12775;46.994;15.498;2023-05-07T00:04:03;17.70;99.90
1988;DHT22;12775;46.994;15.498;2023-05-07T00:06:32;17.60;99.90
1988;DHT22;12775;46.994;15.498;2023-05-07T00:08:58;17.60;99.90
1988;DHT22;12775;46.994;15.498;2023-05-07T00:11:24;17.70;99.90
1988;DHT22;12775;46.994;15.498;2023-05-07T00:13:51;17.70;99.50
1988;DHT22;12775;46.994;15.498;2023-05-07T00:16:19;17.80;98.20
1988;DHT22;12775;46.994;15.498;2023-05-07T00:18:46;17.80;99.40
1988;DHT22;12775;46.994;15.498;2023-05-07T00:21:13;17.80;99.40
1988;DHT22;12775;46.994;15.498;2023-05-07T00:23:40;17.80;99.90
1988;DHT22;12775;46.994;15.498;2023-05-07T00:26:07;17.80;99.90
1988;DHT22;12775;46.994;15.498;2023-05-07T00:28:33;17.70;99.90
1988;DHT22;12775;46.994;15.498;2023-05-07T00:31:00;17.70;99.90
1988;DHT22;12775;46.994;15.498;2023-05-07T00:33:27;17.60;99.90
1988;DHT22;12775;46.994;15.498;2023-05-07T00:35:53;17.60;99.90
1988;DHT22;12775;46.994;15.498;2023-05-07T00:38:21;17.40;99.90
1988;DHT22;12775;46.994;15.498;2023-05-07T00:40:48;17.40;99.90
1988;DHT22;12775;46.994;15.498;2023-05-07T00:43:15;17.30;99.90
1988;DHT22;12775;46.994;15.498;2023-05-07T00:45:43;17.30;99.90
1988;DHT22;12775;46.994;15.498;2023-05-07T00:48:11;17.10;99.90
1988;DHT22;12775;46.994;15.498;2023-05-07T00:50:38;17.10;99.90
1988;DHT22;12775;46.994;15.498;2023-05-07T00:53:04;17.00;99.90
1988;DHT22;12775;46.994;15.498;2023-05-07T00:55:31;17.00;99.90
1988;DHT22;12775;46.994;15.498;2023-05-07T00:57:57;16.90;99.90
1988;DHT22;12775;46.994;15.498;2023-05-07T01:00:24;16.90;99.90
1988;DHT22;12775;46.994;15.498;2023-05-07T01:02:51;17.00;99.90
1988;DHT22;12775;46.994;15.498;2023-05-07T01:05:19;17.00;99.90
1988;DHT22;12775;46.994;15.498;2023-05-07T01:07:46;17.10;99.90
1988;DHT22;12775;46.994;15.498;2023-05-07T01:10:14;17.10;99.90
1988;DHT22;12775;46.994;15.498;2023-05-07T01:12:41;17.00;99.90
1988;DHT22;12775;46.994;15.498;2023-05-07T01:15:08;17.00;99.90
1988;DHT22;12775;46.994;15.498;2023-05-07T01:17:36;17.00;99.90
1988;DHT22;12775;46.994;15.498;2023-05-07T01:20:03;17.00;99.90
1988;DHT22;12775;46.994;15.498;2023-05-07T01:22:31;17.10;99.90
1988;DHT22;12775;46.994;15.498;2023-05-07T01:24:57;17.10;99.90
1988;DHT22;12775;46.994;15.498;2023-05-07T01:27:24;17.20;99.90
1988;DHT22;12775;46.994;15.498;2023-05-07T01:29:50;17.20;99.90
1988;DHT22;12775;46.994;15.498;2023-05-07T01:32:18;17.20;99.90
1988;DHT22;12775;46.994;15.498;2023-05-07T01:34:44;17.20;99.90
1988;DHT22;12775;46.994;15.498;2023-05-07T01:37:11;17.20;99.30
1988;DHT22;12775;46.994;15.498;2023-05-07T01:39:38;17.30;99.40
1988;DHT22;12775;46.994;15.498;2023-05-07T01:42:05;17.20;99.40
1988;DHT22;12775;46.994;15.498;2023-05-07T01:44:32;17.30;99.90
1988;DHT22;12775;46.994;15.498;2023-05-07T01:46:59;17.30;99.90
1988;DHT22;12775;46.994;15.498;2023-05-07T01:49:26;17.20;99.90
1988;DHT22;12775;46.994;15.498;2023-05-07T01:51:53;17.20;99.90
1988;DHT22;12775;46.994;15.498;2023-05-07T01:54:24;17.10;99.90
1988;DHT22;12775;46.994;15.498;2023-05-07T01:56:48;17.10;99.90
1988;DHT22;12775;46.994;15.498;2023-05-07T01:59:14;17.00;99.90
1988;DHT22;12775;46.994;15.498;2023-05-07T02:01:41;17.00;99.90
1988;DHT22;12775;46.994;15.498;2023-05-07T02:04:08;16.90;99.90
1988;DHT22;12775;46.994;15.498;2023-05-07T02:06:34;16.70;99.90
1988;DHT22;12775;46.994;15.498;2023-05-07T02:09:01;16.60;99.90
1988;DHT22;12775;46.994;15.498;2023-05-07T02:11:28;16.60;99.90
1988;DHT22;12775;46.994;15.498;2023-05-07T02:13:55;16.60;99.90
1988;DHT22;12775;46.994;15.498;2023-05-07T02:16:22;16.50;99.90
1988;DHT22;12775;46.994;15.498;2023-05-07T02:18:49;16.40;99.90
1988;DHT22;12775;46.994;15.498;2023-05-07T02:21:17;16.40;99.90
1988;DHT22;12775;46.994;15.498;2023-05-07T02:23:43;16.30;99.90
1988;DHT22;12775;46.994;15.498;2023-05-07T02:26:10;16.40;99.90
1988;DHT22;12775;46.994;15.498;2023-05-07T02:28:37;16.40;99.90
1988;DHT22;12775;46.994;15.498;2023-05-07T02:31:03;16.30;99.90
1988;DHT22;12775;46.994;15.498;2023-05-07T02:33:30;16.30;99.90
1988;DHT22;12775;46.994;15.498;2023-05-07T02:36:04;16.30;99.90
1988;DHT22;12775;46.994;15.498;2023-05-07T02:38:24;16.30;99.90
1988;DHT22;12775;46.994;15.498;2023-05-07T02:40:50;16.20;99.90
1988;DHT22;12775;46.994;15.498;2023-05-07T02:43:18;16.20;99.90
1988;DHT22;12775;46.994;15.498;2023-05-07T02:45:46;16.20;99.90
1988;DHT22;12775;46.994;15.498;2023-05-07T02:48:12;16.20;99.90
1988;DHT22;12775;46.994;15.498;2023-05-07T02:50:39;16.20;99.90
1988;DHT22;12775;46.994;15.498;2023-05-07T02:53:06;16.10;99.90
1988;DHT22;12775;46.994;15.498;2023-05-07T02:55:32;16.10;99.90
1988;DHT22;12775;46.994;15.498;2023-05-07T02:57:59;16.00;99.90
1988;DHT22;12775;46.994;15.498;2023-05-07T03:00:25;15.80;99.90
1988;DHT22;12775;46.994;15.498;2023-05-07T03:02:53;15.70;99.90
1988;DHT22;12775;46.994;15.498;2023-05-07T03:05:20;15.60;99.90
1988;DHT22;12775;46.994;15.498;2023-05-07T03:07:48;15.60;99.90
1988;DHT22;12775;46.994;15.498;2023-05-07T03:10:16;15.60;99.90
1988;DHT22;12775;46.994;15.498;2023-05-07T03:12:42;15.60;99.90
1988;DHT22;12775;46.994;15.498;2023-05-07T03:15:09;15.60;99.90
1988;DHT22;12775;46.994;15.498;2023-05-07T03:17:37;15.60;99.90
1988;DHT22;12775;46.994;15.498;2023-05-07T03:20:04;15.60;99.90
1988;DHT22;12775;46.994;15.498;2023-05-07T03:22:31;15.70;99.90
1988;DHT22;12775;46.994;15.498;2023-05-07T03:24:58;15.70;99.90
1988;DHT22;12775;46.994;15.498;2023-05-07T03:27:24;15.70;99.90
1988;DHT22;12775;46.994;15.498;2023-05-07T03:29:54;15.70;99.90
1988;DHT22;12775;46.994;15.498;2023-05-07T03:32:20;15.80;99.90
1988;DHT22;12775;46.994;15.498;2023-05-07T03:34:48;15.70;99.90
1988;DHT22;12775;46.994;15.498;2023-05-07T03:37:14;15.70;99.90
1988;DHT22;12775;46.994;15.498;2023-05-07T03:39:41;15.70;99.90
1988;DHT22;12775;46.994;15.498;2023-05-07T03:42:08;15.80;99.90
1988;DHT22;12775;46.994;15.498;2023-05-07T03:44:35;15.80;99.90
1988;DHT22;12775;46.994;15.498;2023-05-07T03:47:02;15.80;99.90
1988;DHT22;12775;46.994;15.498;2023-05-07T03:49:28;15.80;99.90
1988;DHT22;12775;46.994;15.498;2023-05-07T03:51:55;15.80;99.90
1988;DHT22;12775;46.994;15.498;2023-05-07T03:54:21;15.70;99.90
1988;DHT22;12775;46.994;15.498;2023-05-07T03:56:48;15.70;99.90
1988;DHT22;12775;46.994;15.498;2023-05-07T03:59:16;15.70;99.90
1988;DHT22;12775;46.994;15.498;2023-05-07T04:01:43;15.60;99.90
1988;DHT22;12775;46.994;15.498;2023-05-07T04:04:10;15.60;99.90
1988;DHT22;12775;46.994;15.498;2023-05-07T04:06:37;15.60;99.90
1988;DHT22;12775;46.994;15.498;2023-05-07T04:09:04;15.60;99.90
1988;DHT22;12775;46.994;15.498;2023-05-07T04:11:30;15.70;99.90
1988;DHT22;12775;46.994;15.498;2023-05-07T04:13:58;15.70;99.90
1988;DHT22;12775;46.994;15.498;2023-05-07T04:16:24;15.70;99.90
1988;DHT22;12775;46.994;15.498;2023-05-07T04:18:51;15.70;99.90
1988;DHT22;12775;46.994;15.498;2023-05-07T04:21:19;15.70;99.90
1988;DHT22;12775;46.994;15.498;2023-05-07T04:23:47;15.70;99.90
1988;DHT22;12775;46.994;15.498;2023-05-07T04:26:14;15.70;99.90
1988;DHT22;12775;46.994;15.498;2023-05-07T04:28:41;15.70;99.90
1988;DHT22;12775;46.994;15.498;2023-05-07T04:31:08;15.80;99.90
1988;DHT22;12775;46.994;15.498;2023-05-07T04:33:35;15.80;99.90
1988;DHT22;12775;46.994;15.498;2023-05-07T04:36:02;15.70;99.90
1988;DHT22;12775;46.994;15.498;2023-05-07T04:38:29;15.80;99.90
1988;DHT22;12775;46.994;15.498;2023-05-07T04:40:55;15.80;99.90
1988;DHT22;12775;46.994;15.498;2023-05-07T04:43:22;15.80;99.90
1988;DHT22;12775;46.994;15.498;2023-05-07T04:45:50;15.80;99.90
1988;DHT22;12775;46.994;15.498;2023-05-07T04:48:17;15.90;99.90
1988;DHT22;12775;46.994;15.498;2023-05-07T04:50:47;15.90;99.90
1988;DHT22;12775;46.994;15.498;2023-05-07T04:53:12;15.90;99.90
1988;DHT22;12775;46.994;15.498;2023-05-07T04:55:38;15.90;99.90
1988;DHT22;12775;46.994;15.498;2023-05-07T04:58:05;16.00;99.90
1988;DHT22;12775;46.994;15.498;2023-05-07T05:00:31;16.10;99.90
1988;DHT22;12775;46.994;15.498;2023-05-07T05:03:01;16.30;99.90
1988;DHT22;12775;46.994;15.498;2023-05-07T05:05:27;16.30;99.90
1988;DHT22;12775;46.994;15.498;2023-05-07T05:07:54;16.30;99.90
1988;DHT22;12775;46.994;15.498;2023-05-07T05:10:21;16.50;99.90
1988;DHT22;12775;46.994;15.498;2023-05-07T05:12:47;16.80;99.90
1988;DHT22;12775;46.994;15.498;2023-05-07T05:15:16;17.20;99.90
1988;DHT22;12775;46.994;15.498;2023-05-07T05:17:43;17.20;99.90
1988;DHT22;12775;46.994;15.498;2023-05-07T05:20:10;17.40;99.90
1988;DHT22;12775;46.994;15.498;2023-05-07T05:22:36;17.60;99.90
1988;DHT22;12775;46.994;15.498;2023-05-07T05:25:04;17.80;99.90
1988;DHT22;12775;46.994;15.498;2023-05-07T05:27:30;18.30;99.90
1988;DHT22;12775;46.994;15.498;2023-05-07T05:29:57;18.60;99.90
1988;DHT22;12775;46.994;15.498;2023-05-07T05:32:24;19.20;99.90
1988;DHT22;12775;46.994;15.498;2023-05-07T05:34:51;19.20;99.90
1988;DHT22;12775;46.994;15.498;2023-05-07T05:37:18;19.40;99.90
1988;DHT22;12775;46.994;15.498;2023-05-07T05:39:44;19.80;99.90
1988;DHT22;12775;46.994;15.498;2023-05-07T05:42:11;20.00;99.20
1988;DHT22;12775;46.994;15.498;2023-05-07T05:44:37;20.20;99.90
1988;DHT22;12775;46.994;15.498;2023-05-07T05:47:04;20.50;99.60
1988;DHT22;12775;46.994;15.498;2023-05-07T05:49:30;20.80;99.50
1988;DHT22;12775;46.994;15.498;2023-05-07T05:51:57;21.10;98.10
1988;DHT22;12775;46.994;15.498;2023-05-07T05:54:24;21.30;96.50
1988;DHT22;12775;46.994;15.498;2023-05-07T05:56:50;21.20;95.50
1988;DHT22;12775;46.994;15.498;2023-05-07T05:59:18;21.60;96.80
1988;DHT22;12775;46.994;15.498;2023-05-07T06:01:46;21.90;96.30
1988;DHT22;12775;46.994;15.498;2023-05-07T06:04:13;21.90;96.30
1988;DHT22;12775;46.994;15.498;2023-05-07T06:06:39;21.90;93.70
1988;DHT22;12775;46.994;15.498;2023-05-07T06:09:06;21.70;94.40
1988;DHT22;12775;46.994;15.498;2023-05-07T06:11:32;21.90;95.10
1988;DHT22;12775;46.994;15.498;2023-05-07T06:13:59;22.10;95.20
1988;DHT22;12775;46.994;15.498;2023-05-07T06:16:26;22.40;95.00
1988;DHT22;12775;46.994;15.498;2023-05-07T06:18:52;22.60;94.00
1988;DHT22;12775;46.994;15.498;2023-05-07T06:21:20;23.00;93.60
1988;DHT22;12775;46.994;15.498;2023-05-07T06:23:47;23.00;94.10
1988;DHT22;12775;46.994;15.498;2023-05-07T06:26:14;23.10;93.70
1988;DHT22;12775;46.994;15.498;2023-05-07T06:28:42;23.10;92.80
1988;DHT22;12775;46.994;15.498;2023-05-07T06:31:15;23.10;93.70
1988;DHT22;12775;46.994;15.498;2023-05-07T06:33:41;23.00;93.60
1988;DHT22;12775;46.994;15.498;2023-05-07T06:36:08;23.30;93.80
1988;DHT22;12775;46.994;15.498;2023-05-07T06:38:35;23.60;93.60
1988;DHT22;12775;46.994;15.498;2023-05-07T06:41:02;23.60;93.60
1988;DHT22;12775;46.994;15.498;2023-05-07T06:43:29;23.90;91.90
1988;DHT22;12775;46.994;15.498;2023-05-07T06:45:55;23.90;92.50
1988;DHT22;12775;46.994;15.498;2023-05-07T06:48:22;24.20;93.40
1988;DHT22;12775;46.994;15.498;2023-05-07T06:50:49;24.30;92.20
1988;DHT22;12775;46.994;15.498;2023-05-07T06:53:15;24.40;91.80
1988;DHT22;12775;46.994;15.498;2023-05-07T06:55:42;24.30;92.40
1988;DHT22;12775;46.994;15.498;2023-05-07T06:58:09;24.10;92.90
1988;DHT22;12775;46.994;15.498;2023-05-07T07:00:35;24.30;91.20
1988;DHT22;12775;46.994;15.498;2023-05-07T07:03:02;24.30;92.30
1988;DHT22;12775;46.994;15.498;2023-05-07T07:05:29;23.80;93.00
1988;DHT22;12775;46.994;15.498;2023-05-07T07:07:56;23.80;93.00
1988;DHT22;12775;46.994;15.498;2023-05-07T07:10:22;23.90;93.70
1988;DHT22;12775;46.994;15.498;2023-05-07T07:12:49;24.30;92.20
1988;DHT22;12775;46.994;15.498;2023-05-07T07:15:16;24.90;89.70
1988;DHT22;12775;46.994;15.498;2023-05-07T07:17:43;24.90;89.60
1988;DHT22;12775;46.994;15.498;2023-05-07T07:20:10;25.20;90.90
1988;DHT22;12775;46.994;15.498;2023-05-07T07:22:36;25.50;90.80
1988;DHT22;12775;46.994;15.498;2023-05-07T07:25:03;25.60;90.10
1988;DHT22;12775;46.994;15.498;2023-05-07T07:27:31;25.80;90.90
1988;DHT22;12775;46.994;15.498;2023-05-07T07:29:58;25.90;90.10
1988;DHT22;12775;46.994;15.498;2023-05-07T07:32:24;26.10;90.20
1988;DHT22;12775;46.994;15.498;2023-05-07T07:34:51;26.30;87.00
1988;DHT22;12775;46.994;15.498;2023-05-07T07:37:17;26.50;79.50
1988;DHT22;12775;46.994;15.498;2023-05-07T07:39:44;26.10;79.80
1988;DHT22;12775;46.994;15.498;2023-05-07T07:42:11;25.80;81.30
1988;DHT22;12775;46.994;15.498;2023-05-07T07:44:38;25.60;83.00
1988;DHT22;12775;46.994;15.498;2023-05-07T07:47:05;25.50;83.00
1988;DHT22;12775;46.994;15.498;2023-05-07T07:49:31;25.50;83.10
1988;DHT22;12775;46.994;15.498;2023-05-07T07:51:59;25.00;85.30
1988;DHT22;12775;46.994;15.498;2023-05-07T07:54:26;25.00;85.30
1988;DHT22;12775;46.994;15.498;2023-05-07T07:56:53;24.70;84.10
1988;DHT22;12775;46.994;15.498;2023-05-07T07:59:20;24.30;85.30
1988;DHT22;12775;46.994;15.498;2023-05-07T08:01:48;24.50;87.30
1988;DHT22;12775;46.994;15.498;2023-05-07T08:04:15;24.70;84.70
1988;DHT22;12775;46.994;15.498;2023-05-07T08:06:41;24.60;84.60
1988;DHT22;12775;46.994;15.498;2023-05-07T08:09:08;24.50;87.40
1988;DHT22;12775;46.994;15.498;2023-05-07T08:11:35;24.30;84.70
1988;DHT22;12775;46.994;15.498;2023-05-07T08:14:02;24.30;84.70
1988;DHT22;12775;46.994;15.498;2023-05-07T08:16:29;24.50;85.10
1988;DHT22;12775;46.994;15.498;2023-05-07T08:18:55;24.50;85.60
1988;DHT22;12775;46.994;15.498;2023-05-07T08:21:22;24.40;86.90
1988;DHT22;12775;46.994;15.498;2023-05-07T08:23:48;24.50;86.30
1988;DHT22;12775;46.994;15.498;2023-05-07T08:26:16;24.70;87.00
1988;DHT22;12775;46.994;15.498;2023-05-07T08:28:42;24.50;84.50
1988;DHT22;12775;46.994;15.498;2023-05-07T08:31:09;24.70;85.50
1988;DHT22;12775;46.994;15.498;2023-05-07T08:33:36;24.50;83.60
1988;DHT22;12775;46.994;15.498;2023-05-07T08:36:04;24.50;85.50
1988;DHT22;12775;46.994;15.498;2023-05-07T08:38:31;24.70;83.40
1988;DHT22;12775;46.994;15.498;2023-05-07T08:40:57;24.90;83.20
1988;DHT22;12775;46.994;15.498;2023-05-07T08:43:26;25.00;86.20
1988;DHT22;12775;46.994;15.498;2023-05-07T08:45:53;25.00;82.70
1988;DHT22;12775;46.994;15.498;2023-05-07T08:48:19;25.00;82.90
1988;DHT22;12775;46.994;15.498;2023-05-07T08:50:46;24.70;83.60
1988;DHT22;12775;46.994;15.498;2023-05-07T08:53:13;24.80;82.80
1988;DHT22;12775;46.994;15.498;2023-05-07T08:55:40;25.00;84.70
1988;DHT22;12775;46.994;15.498;2023-05-07T08:58:08;24.90;84.70
1988;DHT22;12775;46.994;15.498;2023-05-07T09:00:36;25.10;84.00
1988;DHT22;12775;46.994;15.498;2023-05-07T09:03:03;25.10;84.30
1988;DHT22;12775;46.994;15.498;2023-05-07T09:05:29;25.30;81.70
1988;DHT22;12775;46.994;15.498;2023-05-07T09:07:58;25.10;82.30
1988;DHT22;12775;46.994;15.498;2023-05-07T09:10:23;25.10;83.20
1988;DHT22;12775;46.994;15.498;2023-05-07T09:12:50;25.20;82.30
1988;DHT22;12775;46.994;15.498;2023-05-07T09:15:16;25.50;82.60
1988;DHT22;12775;46.994;15.498;2023-05-07T09:17:43;25.30;81.40
1988;DHT22;12775;46.994;15.498;2023-05-07T09:20:10;24.90;82.80
1988;DHT22;12775;46.994;15.498;2023-05-07T09:22:37;25.20;83.90
1988;DHT22;12775;46.994;15.498;2023-05-07T09:25:06;25.10;80.90
1988;DHT22;12775;46.994;15.498;2023-05-07T09:27:32;25.00;80.90
1988;DHT22;12775;46.994;15.498;2023-05-07T09:30:02;24.90;83.30
1988;DHT22;12775;46.994;15.498;2023-05-07T09:32:27;24.90;83.00
1988;DHT22;12775;46.994;15.498;2023-05-07T09:34:54;24.90;83.30
1988;DHT22;12775;46.994;15.498;2023-05-07T09:37:21;24.80;83.20
1988;DHT22;12775;46.994;15.498;2023-05-07T09:39:49;24.70;82.30
1988;DHT22;12775;46.994;15.498;2023-05-07T09:42:15;24.50;83.10
1988;DHT22;12775;46.994;15.498;2023-05-07T09:44:43;24.50;83.10
1988;DHT22;12775;46.994;15.498;2023-05-07T09:47:11;24.40;83.10
1988;DHT22;12775;46.994;15.498;2023-05-07T09:49:39;24.30;83.00
1988;DHT22;12775;46.994;15.498;2023-05-07T09:52:05;24.30;82.50
1988;DHT22;12775;46.994;15.498;2023-05-07T09:54:33;24.40;84.70
1988;DHT22;12775;46.994;15.498;2023-05-07T09:56:59;24.60;83.80
1988;DHT22;12775;46.994;15.498;2023-05-07T09:59:25;24.50;82.80
1988;DHT22;12775;46.994;15.498;2023-05-07T10:01:52;24.70;82.20
1988;DHT22;12775;46.994;15.498;2023-05-07T10:04:19;24.80;82.70
1988;DHT22;12775;46.994;15.498;2023-05-07T10:06:46;24.80;82.70
1988;DHT22;12775;46.994;15.498;2023-05-07T10:09:13;24.70;81.90
1988;DHT22;12775;46.994;15.498;2023-05-07T10:11:41;24.50;82.10
1988;DHT22;12775;46.994;15.498;2023-05-07T10:14:08;24.50;82.20
1988;DHT22;12775;46.994;15.498;2023-05-07T10:16:35;24.70;83.30
1988;DHT22;12775;46.994;15.498;2023-05-07T10:19:03;25.30;83.70
1988;DHT22;12775;46.994;15.498;2023-05-07T10:21:32;25.40;82.30
1988;DHT22;12775;46.994;15.498;2023-05-07T10:23:59;25.30;80.50
1988;DHT22;12775;46.994;15.498;2023-05-07T10:26:25;25.20;80.50
1988;DHT22;12775;46.994;15.498;2023-05-07T10:28:54;25.20;81.60
1988;DHT22;12775;46.994;15.498;2023-05-07T10:31:48;25.00;80.80
1988;DHT22;12775;46.994;15.498;2023-05-07T10:34:12;24.80;81.40
1988;DHT22;12775;46.994;15.498;2023-05-07T10:36:37;24.90;82.20
1988;DHT22;12775;46.994;15.498;2023-05-07T10:39:04;25.20;82.80
1988;DHT22;12775;46.994;15.498;2023-05-07T10:41:31;25.30;80.90
1988;DHT22;12775;46.994;15.498;2023-05-07T10:44:02;25.40;80.90
1988;DHT22;12775;46.994;15.498;2023-05-07T10:46:29;25.40;80.90
1988;DHT22;12775;46.994;15.498;2023-05-07T10:49:07;25.70;89.50
1988;DHT22;12775;46.994;15.498;2023-05-07T10:51:34;25.90;79.30
1988;DHT22;12775;46.994;15.498;2023-05-07T10:56:50;26.10;79.50
1988;DHT22;12775;46.994;15.498;2023-05-07T10:59:31;25.80;78.60
1988;DHT22;12775;46.994;15.498;2023-05-07T11:01:57;25.80;78.70
1988;DHT22;12775;46.994;15.498;2023-05-07T11:04:24;26.00;78.70
1988;DHT22;12775;46.994;15.498;2023-05-07T11:07:24;26.00;77.70
1988;DHT22;12775;46.994;15.498;2023-05-07T11:09:59;26.10;79.60
1988;DHT22;12775;46.994;15.498;2023-05-07T11:12:51;26.30;78.20
1988;DHT22;12775;46.994;15.498;2023-05-07T11:15:39;26.90;79.10
1988;DHT22;12775;46.994;15.498;2023-05-07T11:18:05;26.80;79.00
1988;DHT22;12775;46.994;15.498;2023-05-07T11:25:48;27.10;76.60
1988;DHT22;12775;46.994;15.498;2023-05-07T11:28:17;27.70;74.60
1988;DHT22;12775;46.994;15.498;2023-05-07T11:30:45;27.40;73.10
1988;DHT22;12775;46.994;15.498;2023-05-07T11:33:11;27.40;73.10
1988;DHT22;12775;46.994;15.498;2023-05-07T11:35:38;27.00;72.20
1988;DHT22;12775;46.994;15.498;2023-05-07T11:38:05;27.10;71.40
1988;DHT22;12775;46.994;15.498;2023-05-07T11:40:31;26.90;72.60
1988;DHT22;12775;46.994;15.498;2023-05-07T11:42:58;26.90;71.20
1988;DHT22;12775;46.994;15.498;2023-05-07T11:45:24;27.00;74.40
1988;DHT22;12775;46.994;15.498;2023-05-07T11:47:51;26.90;77.40
1988;DHT22;12775;46.994;15.498;2023-05-07T11:50:18;27.60;73.40
1988;DHT22;12775;46.994;15.498;2023-05-07T11:52:50;27.70;70.70
1988;DHT22;12775;46.994;15.498;2023-05-07T11:55:18;27.60;71.70
1988;DHT22;12775;46.994;15.498;2023-05-07T11:57:44;27.50;71.70
1988;DHT22;12775;46.994;15.498;2023-05-07T12:00:11;27.40;75.20
1988;DHT22;12775;46.994;15.498;2023-05-07T12:02:38;27.60;73.70
1988;DHT22;12775;46.994;15.498;2023-05-07T12:05:04;27.40;71.90
1988;DHT22;12775;46.994;15.498;2023-05-07T12:07:32;27.20;72.90
1988;DHT22;12775;46.994;15.498;2023-05-07T12:09:59;27.30;73.60
1988;DHT22;12775;46.994;15.498;2023-05-07T12:12:26;27.40;74.00
1988;DHT22;12775;46.994;15.498;2023-05-07T12:14:53;27.40;73.30
1988;DHT22;12775;46.994;15.498;2023-05-07T12:17:20;27.60;72.60
1988;DHT22;12775;46.994;15.498;2023-05-07T12:19:47;27.30;72.10
1988;DHT22;12775;46.994;15.498;2023-05-07T12:22:13;27.10;72.00
1988;DHT22;12775;46.994;15.498;2023-05-07T12:24:46;27.00;72.10
1988;DHT22;12775;46.994;15.498;2023-05-07T12:27:12;26.90;72.20
1988;DHT22;12775;46.994;15.498;2023-05-07T12:29:39;26.80;73.00
1988;DHT22;12775;46.994;15.498;2023-05-07T12:32:05;26.60;73.70
1988;DHT22;12775;46.994;15.498;2023-05-07T12:34:32;26.50;73.90
1988;DHT22;12775;46.994;15.498;2023-05-07T12:37:01;26.50;73.90
1988;DHT22;12775;46.994;15.498;2023-05-07T12:39:25;26.20;74.10
1988;DHT22;12775;46.994;15.498;2023-05-07T12:41:53;26.20;74.40
1988;DHT22;12775;46.994;15.498;2023-05-07T12:44:18;26.10;75.00
1988;DHT22;12775;46.994;15.498;2023-05-07T12:46:46;26.00;75.80
1988;DHT22;12775;46.994;15.498;2023-05-07T12:49:12;26.00;75.70
1988;DHT22;12775;46.994;15.498;2023-05-07T12:51:40;26.00;75.30
1988;DHT22;12775;46.994;15.498;2023-05-07T12:54:06;25.90;74.60
1988;DHT22;12775;46.994;15.498;2023-05-07T12:56:35;26.10;75.10
1988;DHT22;12775;46.994;15.498;2023-05-07T12:58:59;26.20;75.00
1988;DHT22;12775;46.994;15.498;2023-05-07T13:01:30;26.30;74.80
1988;DHT22;12775;46.994;15.498;2023-05-07T13:03:56;26.00;75.50
1988;DHT22;12775;46.994;15.498;2023-05-07T13:06:22;26.10;76.00
1988;DHT22;12775;46.994;15.498;2023-05-07T13:08:49;26.00;74.00
1988;DHT22;12775;46.994;15.498;2023-05-07T13:11:16;25.50;76.20
1988;DHT22;12775;46.994;15.498;2023-05-07T13:13:43;25.50;76.30
1988;DHT22;12775;46.994;15.498;2023-05-07T13:16:10;25.40;76.20
1988;DHT22;12775;46.994;15.498;2023-05-07T13:18:38;25.30;76.90
1988;DHT22;12775;46.994;15.498;2023-05-07T13:21:03;25.10;77.60
1988;DHT22;12775;46.994;15.498;2023-05-07T13:23:31;24.80;79.30
1988;DHT22;12775;46.994;15.498;2023-05-07T13:25:58;24.80;80.10
1988;DHT22;12775;46.994;15.498;2023-05-07T13:28:25;24.40;81.00
1988;DHT22;12775;46.994;15.498;2023-05-07T13:30:52;24.00;82.50
1988;DHT22;12775;46.994;15.498;2023-05-07T13:33:19;23.90;84.70
1988;DHT22;12775;46.994;15.498;2023-05-07T13:35:46;23.80;82.60
1988;DHT22;12775;46.994;15.498;2023-05-07T13:38:12;23.80;84.30
1988;DHT22;12775;46.994;15.498;2023-05-07T13:40:40;23.80;88.20
1988;DHT22;12775;46.994;15.498;2023-05-07T13:43:06;23.80;88.20
1988;DHT22;12775;46.994;15.498;2023-05-07T13:45:33;23.60;88.30
1988;DHT22;12775;46.994;15.498;2023-05-07T13:48:01;23.00;89.60
1988;DHT22;12775;46.994;15.498;2023-05-07T13:50:28;22.70;90.20
1988;DHT22;12775;46.994;15.498;2023-05-07T13:52:55;22.70;90.20
1988;DHT22;12775;46.994;15.498;2023-05-07T13:55:23;22.30;91.30
1988;DHT22;12775;46.994;15.498;2023-05-07T13:57:56;21.90;92.90
1988;DHT22;12775;46.994;15.498;2023-05-07T14:00:21;21.30;93.80
1988;DHT22;12775;46.994;15.498;2023-05-07T14:02:48;20.90;94.60
1988;DHT22;12775;46.994;15.498;2023-05-07T14:05:16;20.50;96.80
1988;DHT22;12775;46.994;15.498;2023-05-07T14:07:43;20.40;96.70
1988;DHT22;12775;46.994;15.498;2023-05-07T14:10:10;19.50;99.10
1988;DHT22;12775;46.994;15.498;2023-05-07T14:12:37;19.50;99.10
1988;DHT22;12775;46.994;15.498;2023-05-07T14:15:04;19.10;99.90
1988;DHT22;12775;46.994;15.498;2023-05-07T14:17:31;18.10;99.90
1988;DHT22;12775;46.994;15.498;2023-05-07T14:19:58;18.00;99.90
1988;DHT22;12775;46.994;15.498;2023-05-07T14:22:24;17.70;99.90
1988;DHT22;12775;46.994;15.498;2023-05-07T14:24:51;17.70;99.90
1988;DHT22;12775;46.994;15.498;2023-05-07T14:27:18;17.80;99.90
1988;DHT22;12775;46.994;15.498;2023-05-07T14:29:46;17.80;99.90
1988;DHT22;12775;46.994;15.498;2023-05-07T14:32:17;17.70;99.90
1988;DHT22;12775;46.994;15.498;2023-05-07T14:34:44;17.70;99.90
1988;DHT22;12775;46.994;15.498;2023-05-07T14:37:10;17.70;99.90
1988;DHT22;12775;46.994;15.498;2023-05-07T14:39:37;17.80;99.90
1988;DHT22;12775;46.994;15.498;2023-05-07T14:42:03;18.00;99.90
1988;DHT22;12775;46.994;15.498;2023-05-07T14:44:30;18.10;99.90
1988;DHT22;12775;46.994;15.498;2023-05-07T14:46:57;18.30;99.90
1988;DHT22;12775;46.994;15.498;2023-05-07T14:49:23;18.40;99.90
1988;DHT22;12775;46.994;15.498;2023-05-07T14:51:50;18.60;99.90
1988;DHT22;12775;46.994;15.498;2023-05-07T14:54:17;18.80;99.90
1988;DHT22;12775;46.994;15.498;2023-05-07T14:56:44;18.80;99.90
1988;DHT22;12775;46.994;15.498;2023-05-07T14:59:10;19.00;99.90
1988;DHT22;12775;46.994;15.498;2023-05-07T15:01:38;19.00;99.90
1988;DHT22;12775;46.994;15.498;2023-05-07T15:04:04;19.00;99.90
1988;DHT22;12775;46.994;15.498;2023-05-07T15:06:31;18.90;99.90
1988;DHT22;12775;46.994;15.498;2023-05-07T15:08:58;18.90;99.90
1988;DHT22;12775;46.994;15.498;2023-05-07T15:11:25;18.90;99.90
1988;DHT22;12775;46.994;15.498;2023-05-07T15:13:52;18.70;99.90
1988;DHT22;12775;46.994;15.498;2023-05-07T15:16:20;18.50;99.90
1988;DHT22;12775;46.994;15.498;2023-05-07T15:18:47;18.50;99.90
1988;DHT22;12775;46.994;15.498;2023-05-07T15:21:13;18.30;99.90
1988;DHT22;12775;46.994;15.498;2023-05-07T15:23:40;17.90;99.90
1988;DHT22;12775;46.994;15.498;2023-05-07T15:26:07;17.70;99.90
1988;DHT22;12775;46.994;15.498;2023-05-07T15:28:35;17.50;99.90
1988;DHT22;12775;46.994;15.498;2023-05-07T15:31:03;17.50;99.90
1988;DHT22;12775;46.994;15.498;2023-05-07T15:33:30;17.60;99.90
1988;DHT22;12775;46.994;15.498;2023-05-07T15:35:59;18.00;99.90
1988;DHT22;12775;46.994;15.498;2023-05-07T15:38:26;18.00;99.90